createdAt,value
2022-12-31T00:00:49.251Z,12.90
2022-12-31T00:03:17.543Z,12.90
2022-12-31T00:05:45.100Z,12.90
2022-12-31T00:08:12.636Z,12.90
2022-12-31T00:10:41.929Z,12.90
2022-12-31T00:13:13.401Z,12.90
2022-12-31T00:15:42.654Z,12.90
2022-12-31T00:18:10.875Z,12.90
2022-12-31T00:20:42.133Z,12.90
2022-12-31T00:23:10.735Z,12.90
2022-12-31T00:25:38.172Z,12.90
2022-12-31T00:28:05.662Z,12.90
2022-12-31T00:30:34.434Z,12.90
2022-12-31T00:33:01.954Z,12.90
2022-12-31T00:35:29.607Z,12.90
2022-12-31T00:37:57.233Z,12.90
2022-12-31T00:40:25.007Z,12.90
2022-12-31T00:42:52.461Z,13.00
2022-12-31T00:45:19.983Z,12.90
2022-12-31T00:47:47.475Z,12.90
2022-12-31T00:50:15.024Z,12.90
2022-12-31T00:52:42.454Z,12.90
2022-12-31T00:55:10.163Z,12.90
2022-12-31T00:57:37.649Z,12.90
2022-12-31T01:00:07.618Z,12.90
2022-12-31T01:02:35.516Z,12.80
2022-12-31T01:05:03.553Z,12.80
2022-12-31T01:07:31.120Z,12.80
2022-12-31T01:09:58.754Z,12.80
2022-12-31T01:12:26.369Z,12.70
2022-12-31T01:14:54.016Z,12.70
2022-12-31T01:17:21.521Z,12.70
2022-12-31T01:19:48.988Z,12.70
2022-12-31T01:22:16.616Z,12.70
2022-12-31T01:24:44.296Z,12.60
2022-12-31T01:27:11.914Z,12.60
2022-12-31T01:29:39.533Z,12.60
2022-12-31T01:32:06.964Z,12.60
2022-12-31T01:34:34.386Z,12.60
2022-12-31T01:37:01.890Z,12.50
2022-12-31T01:39:29.417Z,12.60
2022-12-31T01:41:58.070Z,12.60
2022-12-31T01:44:25.450Z,12.60
2022-12-31T01:47:00.431Z,12.60
2022-12-31T01:49:39.511Z,12.60
2022-12-31T01:52:12.407Z,12.50
2022-12-31T01:54:46.830Z,12.60
2022-12-31T01:57:14.960Z,12.40
2022-12-31T01:59:43.747Z,12.50
2022-12-31T02:02:12.863Z,12.50
2022-12-31T02:04:40.640Z,12.50
2022-12-31T02:07:09.913Z,12.50
2022-12-31T02:09:39.846Z,12.50
2022-12-31T02:12:09.544Z,12.40
2022-12-31T02:14:40.737Z,12.50
2022-12-31T02:17:34.028Z,12.40
2022-12-31T02:20:31.110Z,12.50
2022-12-31T02:23:10.842Z,12.40
2022-12-31T02:26:08.821Z,12.40
2022-12-31T02:29:11.775Z,12.40
2022-12-31T02:31:47.154Z,12.40
2022-12-31T02:34:25.575Z,12.40
2022-12-31T02:36:55.974Z,12.40
2022-12-31T02:39:23.670Z,12.40
2022-12-31T02:41:52.376Z,12.40
2022-12-31T02:44:29.293Z,12.40
2022-12-31T02:47:34.080Z,12.40
2022-12-31T02:50:27.889Z,12.40
2022-12-31T02:53:14.300Z,12.40
2022-12-31T02:55:54.850Z,12.40
2022-12-31T02:58:45.402Z,12.40
2022-12-31T03:01:36.164Z,12.40
2022-12-31T03:04:25.431Z,12.40
2022-12-31T03:06:53.904Z,12.40
2022-12-31T03:09:21.557Z,12.40
2022-12-31T03:12:07.951Z,12.40
2022-12-31T03:14:35.448Z,12.40
2022-12-31T03:17:02.915Z,12.40
2022-12-31T03:19:49.414Z,12.40
2022-12-31T03:22:29.285Z,12.40
2022-12-31T03:25:28.002Z,12.40
2022-12-31T03:27:57.146Z,12.40
2022-12-31T03:30:25.360Z,12.40
2022-12-31T03:32:53.975Z,12.40
2022-12-31T03:35:22.682Z,12.40
2022-12-31T03:37:51.355Z,12.50
2022-12-31T03:40:20.884Z,12.50
2022-12-31T03:42:48.375Z,12.40
2022-12-31T03:45:16.118Z,12.50
2022-12-31T03:47:43.875Z,12.40
2022-12-31T03:50:13.383Z,12.50
2022-12-31T03:52:41.196Z,12.50
2022-12-31T03:55:09.824Z,12.50
2022-12-31T03:57:38.637Z,12.40
2022-12-31T04:00:09.506Z,12.50
2022-12-31T04:02:37.387Z,12.50
2022-12-31T04:05:05.316Z,12.50
2022-12-31T04:07:32.785Z,12.50
2022-12-31T04:10:00.389Z,12.50
2022-12-31T04:12:27.817Z,12.50
2022-12-31T04:14:55.246Z,12.50
2022-12-31T04:17:22.700Z,12.50
2022-12-31T04:19:50.065Z,12.50
2022-12-31T04:22:17.787Z,12.60
2022-12-31T04:24:45.858Z,12.50
2022-12-31T04:27:14.164Z,12.60
2022-12-31T04:29:41.664Z,12.60
2022-12-31T04:32:10.319Z,12.60
2022-12-31T04:34:37.796Z,12.70
2022-12-31T04:37:05.328Z,12.70
2022-12-31T04:39:32.881Z,12.70
2022-12-31T04:42:00.263Z,12.90
2022-12-31T04:44:27.725Z,12.80
2022-12-31T04:46:55.287Z,12.90
2022-12-31T04:49:22.703Z,13.00
2022-12-31T04:51:50.219Z,13.10
2022-12-31T04:54:17.600Z,13.10
2022-12-31T04:56:45.038Z,13.10
2022-12-31T04:59:12.953Z,13.20
2022-12-31T05:01:40.680Z,13.30
2022-12-31T05:04:08.173Z,13.30
2022-12-31T05:06:35.655Z,13.40
2022-12-31T05:09:03.428Z,13.40
2022-12-31T05:11:30.954Z,13.50
2022-12-31T05:13:58.510Z,13.60
2022-12-31T05:16:26.320Z,13.60
2022-12-31T05:18:55.559Z,13.70
2022-12-31T05:21:23.030Z,13.70
2022-12-31T05:23:50.535Z,13.80
2022-12-31T05:26:18.013Z,13.90
2022-12-31T05:28:45.579Z,13.90
2022-12-31T05:31:13.061Z,14.00
2022-12-31T05:33:41.044Z,14.00
2022-12-31T05:36:08.560Z,14.00
2022-12-31T05:38:37.668Z,14.10
2022-12-31T05:41:07.626Z,14.10
2022-12-31T05:43:35.365Z,14.20
2022-12-31T05:46:04.479Z,14.20
2022-12-31T05:48:32.520Z,14.30
2022-12-31T05:51:00.426Z,14.30
2022-12-31T05:53:27.949Z,14.40
2022-12-31T05:55:55.541Z,14.40
2022-12-31T05:58:23.078Z,14.40
2022-12-31T06:00:52.203Z,14.50
2022-12-31T06:03:19.753Z,14.50
2022-12-31T06:05:47.317Z,14.50
2022-12-31T06:08:14.888Z,14.50
2022-12-31T06:10:42.618Z,14.60
2022-12-31T06:13:10.362Z,14.50
2022-12-31T06:15:39.814Z,14.60
2022-12-31T06:18:07.640Z,14.50
2022-12-31T06:20:38.895Z,14.60
2022-12-31T06:23:07.078Z,14.60
2022-12-31T06:25:38.025Z,14.70
2022-12-31T06:28:06.731Z,14.70
2022-12-31T06:30:34.591Z,14.60
2022-12-31T06:33:02.168Z,14.70
2022-12-31T06:35:29.807Z,14.70
2022-12-31T06:37:57.231Z,14.80
2022-12-31T06:40:24.976Z,14.80
2022-12-31T06:42:59.475Z,14.80
2022-12-31T06:45:28.490Z,14.80
2022-12-31T06:47:56.082Z,14.80
2022-12-31T06:50:24.127Z,14.70
2022-12-31T06:52:51.551Z,14.80
2022-12-31T06:55:19.349Z,14.80
2022-12-31T06:57:47.200Z,14.80
2022-12-31T07:00:15.417Z,14.80
2022-12-31T07:03:15.211Z,14.80
2022-12-31T07:06:03.869Z,14.80
2022-12-31T07:08:39.376Z,14.80
2022-12-31T07:11:20.504Z,14.80
2022-12-31T07:14:10.029Z,14.80
2022-12-31T07:16:55.169Z,14.70
2022-12-31T07:19:28.683Z,14.70
2022-12-31T07:21:58.599Z,14.70
2022-12-31T07:24:26.572Z,14.70
2022-12-31T07:27:26.601Z,14.70
2022-12-31T07:30:09.731Z,14.70
2022-12-31T07:33:00.642Z,14.70
2022-12-31T07:35:47.098Z,14.60
2022-12-31T07:38:37.987Z,14.60
2022-12-31T07:41:11.558Z,14.50
2022-12-31T07:43:39.226Z,14.50
2022-12-31T07:46:35.797Z,14.40
2022-12-31T07:49:04.604Z,14.50
2022-12-31T07:51:32.423Z,14.40
2022-12-31T07:53:59.979Z,14.50
2022-12-31T07:56:27.455Z,14.50
2022-12-31T07:59:33.723Z,14.50
2022-12-31T08:02:01.277Z,14.50
2022-12-31T08:05:03.644Z,14.50
2022-12-31T08:07:43.536Z,14.50
2022-12-31T08:10:36.150Z,14.50
2022-12-31T08:13:09.228Z,14.50
2022-12-31T08:15:41.435Z,14.40
2022-12-31T08:18:09.352Z,14.50
2022-12-31T08:20:55.388Z,14.50
2022-12-31T08:24:07.321Z,14.50
2022-12-31T08:26:53.241Z,14.50
2022-12-31T08:29:41.166Z,14.50
2022-12-31T08:32:22.800Z,14.40
2022-12-31T08:35:17.043Z,14.40
2022-12-31T08:38:13.402Z,14.40
2022-12-31T08:40:59.455Z,14.50
2022-12-31T08:43:32.799Z,14.50
2022-12-31T08:46:00.855Z,14.50
2022-12-31T08:48:39.441Z,14.50
2022-12-31T08:51:13.082Z,14.50
2022-12-31T08:53:41.241Z,14.50
2022-12-31T08:56:22.283Z,14.50
2022-12-31T08:58:54.059Z,14.60
2022-12-31T09:01:25.123Z,14.60
2022-12-31T09:03:55.643Z,14.50
2022-12-31T09:06:34.388Z,14.60
2022-12-31T09:09:13.206Z,14.60
2022-12-31T09:11:51.434Z,14.60
2022-12-31T09:14:21.610Z,14.60
2022-12-31T09:17:01.774Z,14.60
2022-12-31T09:19:29.361Z,14.60
2022-12-31T09:21:57.024Z,14.60
2022-12-31T09:24:24.947Z,14.60
2022-12-31T09:27:25.438Z,14.70
2022-12-31T09:30:14.456Z,14.70
2022-12-31T09:33:06.634Z,14.70
2022-12-31T09:35:58.038Z,14.60
2022-12-31T09:38:34.299Z,14.70
2022-12-31T09:41:13.893Z,14.70
2022-12-31T09:43:59.075Z,14.70
2022-12-31T09:46:50.266Z,14.70
2022-12-31T09:49:46.524Z,14.70
2022-12-31T09:52:30.399Z,14.70
2022-12-31T09:55:35.649Z,14.70
2022-12-31T09:58:12.485Z,14.70
2022-12-31T10:00:58.894Z,14.70
2022-12-31T10:03:52.270Z,14.70
2022-12-31T10:06:25.136Z,14.70
2022-12-31T10:09:06.868Z,14.70
2022-12-31T10:11:50.722Z,14.70
2022-12-31T10:14:38.094Z,14.70
2022-12-31T10:17:41.244Z,14.70
2022-12-31T10:20:43.297Z,14.70
2022-12-31T10:23:37.357Z,14.70
2022-12-31T10:26:04.817Z,14.70
2022-12-31T10:28:44.700Z,14.70
2022-12-31T10:31:33.663Z,14.80
2022-12-31T10:34:31.648Z,14.80
2022-12-31T10:37:29.838Z,14.80
2022-12-31T10:40:09.329Z,14.80
2022-12-31T10:43:05.854Z,14.70
2022-12-31T10:46:01.415Z,14.80
2022-12-31T10:48:44.097Z,14.80
2022-12-31T10:51:54.518Z,14.80
2022-12-31T10:54:21.897Z,14.80
2022-12-31T10:57:33.954Z,14.70
2022-12-31T11:00:10.871Z,14.80
2022-12-31T11:02:38.630Z,14.70
2022-12-31T11:05:27.413Z,14.70
2022-12-31T11:08:17.142Z,14.80
2022-12-31T11:11:13.044Z,14.70
2022-12-31T11:14:22.016Z,14.70
2022-12-31T11:17:21.705Z,14.70
2022-12-31T11:20:16.952Z,14.70
2022-12-31T11:23:07.487Z,14.70
2022-12-31T11:26:05.081Z,14.70
2022-12-31T11:28:52.902Z,14.70
2022-12-31T11:31:23.560Z,14.70
2022-12-31T11:34:03.330Z,14.60
2022-12-31T11:36:44.457Z,14.60
2022-12-31T11:39:34.098Z,14.60
2022-12-31T11:42:20.858Z,14.60
2022-12-31T11:44:57.163Z,14.60
2022-12-31T11:47:56.535Z,14.60
2022-12-31T11:50:38.991Z,14.60
2022-12-31T11:53:39.729Z,14.60
2022-12-31T11:56:16.079Z,14.50
2022-12-31T11:58:53.720Z,14.50
2022-12-31T12:01:36.575Z,14.40
2022-12-31T12:04:04.301Z,14.50
2022-12-31T12:06:33.469Z,14.40
2022-12-31T12:09:06.494Z,14.40
2022-12-31T12:11:39.291Z,14.50
2022-12-31T12:14:44.225Z,14.40
2022-12-31T12:17:19.774Z,14.40
2022-12-31T12:19:54.486Z,14.50
2022-12-31T12:22:25.235Z,14.50
2022-12-31T12:24:57.919Z,14.50
2022-12-31T12:27:29.986Z,14.50
2022-12-31T12:29:57.446Z,14.50
2022-12-31T12:32:27.334Z,14.60
2022-12-31T12:34:54.924Z,14.60
2022-12-31T12:37:33.345Z,14.60
2022-12-31T12:40:06.450Z,14.60
2022-12-31T12:42:34.103Z,14.70
2022-12-31T12:45:14.150Z,14.70
2022-12-31T12:47:44.288Z,14.70
2022-12-31T12:50:24.376Z,14.70
2022-12-31T12:53:12.889Z,14.70
2022-12-31T12:55:57.170Z,14.60
2022-12-31T12:58:50.203Z,14.60
2022-12-31T13:01:42.898Z,14.70
2022-12-31T13:04:41.608Z,14.70
2022-12-31T13:07:23.850Z,14.60
2022-12-31T13:10:29.200Z,14.60
2022-12-31T13:13:23.430Z,14.60
2022-12-31T13:16:25.785Z,14.60
2022-12-31T13:19:02.743Z,14.60
2022-12-31T13:21:57.959Z,14.60
2022-12-31T13:25:06.998Z,14.60
2022-12-31T13:27:37.279Z,14.60
2022-12-31T13:30:18.287Z,14.50
2022-12-31T13:32:47.522Z,14.50
2022-12-31T13:35:42.901Z,14.50
2022-12-31T13:38:31.695Z,14.50
2022-12-31T13:41:21.571Z,14.40
2022-12-31T13:44:21.338Z,14.40
2022-12-31T13:47:02.741Z,14.40
2022-12-31T13:49:39.948Z,14.40
2022-12-31T13:52:28.459Z,14.30
2022-12-31T13:55:22.819Z,14.30
2022-12-31T13:58:01.611Z,14.30
2022-12-31T14:00:44.189Z,14.30
2022-12-31T14:03:23.604Z,14.20
2022-12-31T14:06:05.196Z,14.20
2022-12-31T14:08:32.801Z,14.20
2022-12-31T14:11:18.585Z,14.20
2022-12-31T14:14:10.439Z,14.20
2022-12-31T14:16:54.958Z,14.20
2022-12-31T14:19:44.096Z,14.10
2022-12-31T14:22:17.653Z,14.10
2022-12-31T14:24:46.363Z,14.10
2022-12-31T14:27:22.987Z,14.10
2022-12-31T14:30:00.128Z,14.10
2022-12-31T14:32:42.926Z,14.10
2022-12-31T14:35:31.389Z,14.00
2022-12-31T14:38:32.812Z,14.00
2022-12-31T14:41:26.516Z,14.00
2022-12-31T14:44:18.650Z,14.00
2022-12-31T14:47:23.890Z,13.90
2022-12-31T14:50:05.136Z,13.90
2022-12-31T14:52:35.933Z,13.90
2022-12-31T14:55:23.815Z,13.80
2022-12-31T15:00:40.047Z,13.80
2022-12-31T15:03:16.455Z,13.80
2022-12-31T15:06:01.078Z,13.80
2022-12-31T15:08:59.933Z,13.80
2022-12-31T15:11:46.737Z,13.80
2022-12-31T15:14:51.359Z,13.80
2022-12-31T15:17:31.295Z,13.80
2022-12-31T15:20:18.120Z,13.70
2022-12-31T15:22:47.876Z,13.70
2022-12-31T15:25:24.606Z,13.70
2022-12-31T15:27:53.986Z,13.70
2022-12-31T15:30:46.360Z,13.60
2022-12-31T15:33:27.197Z,13.70
2022-12-31T15:35:57.005Z,13.60
2022-12-31T15:38:37.094Z,13.70
2022-12-31T15:44:54.091Z,13.60
2022-12-31T15:47:36.534Z,13.60
2022-12-31T15:50:18.805Z,13.60
2022-12-31T15:52:49.998Z,13.50
2022-12-31T15:55:22.318Z,13.50
2022-12-31T15:57:50.935Z,13.50
2022-12-31T16:00:21.500Z,13.60
2022-12-31T16:02:52.862Z,13.50
2022-12-31T16:05:26.490Z,13.50
2022-12-31T16:07:59.182Z,13.50
2022-12-31T16:10:32.097Z,13.50
2022-12-31T16:13:00.441Z,13.50
2022-12-31T16:15:31.513Z,13.50
2022-12-31T16:18:20.603Z,13.50
2022-12-31T16:20:52.076Z,13.50
2022-12-31T16:23:25.538Z,13.50
2022-12-31T16:25:58.408Z,13.50
2022-12-31T16:28:31.802Z,13.50
2022-12-31T16:31:04.514Z,13.50
2022-12-31T16:33:32.759Z,13.50
2022-12-31T16:36:01.715Z,13.50
2022-12-31T16:38:36.857Z,13.50
2022-12-31T16:41:20.962Z,13.50
2022-12-31T16:43:50.687Z,13.50
2022-12-31T16:46:28.460Z,13.40
2022-12-31T16:49:03.093Z,13.40
2022-12-31T16:51:32.490Z,13.50
2022-12-31T16:54:02.258Z,13.40
2022-12-31T16:56:36.408Z,13.50
2022-12-31T16:59:14.280Z,13.50
2022-12-31T17:01:42.598Z,13.50
2022-12-31T17:04:12.123Z,13.50
2022-12-31T17:06:39.791Z,13.50
2022-12-31T17:09:22.231Z,13.50
2022-12-31T17:12:15.823Z,13.50
2022-12-31T17:14:51.113Z,13.60
2022-12-31T17:17:25.613Z,13.50
2022-12-31T17:19:59.573Z,13.60
2022-12-31T17:22:41.948Z,13.60
2022-12-31T17:25:21.941Z,13.60
2022-12-31T17:27:58.344Z,13.60
2022-12-31T17:30:32.781Z,13.60
2022-12-31T17:33:04.010Z,13.60
2022-12-31T17:35:31.566Z,13.70
2022-12-31T17:38:18.184Z,13.70
2022-12-31T17:40:51.860Z,13.70
2022-12-31T17:43:21.913Z,13.70
2022-12-31T17:45:54.308Z,13.70
2022-12-31T17:48:24.733Z,13.70
2022-12-31T17:51:00.377Z,13.70
2022-12-31T17:53:28.056Z,13.80
2022-12-31T17:56:00.750Z,13.70
2022-12-31T17:58:33.618Z,13.70
2022-12-31T18:01:05.446Z,13.80
2022-12-31T18:03:33.107Z,13.70
2022-12-31T18:06:00.589Z,13.80
2022-12-31T18:08:28.053Z,13.70
2022-12-31T18:10:55.660Z,13.80
2022-12-31T18:13:25.222Z,13.80
2022-12-31T18:15:54.178Z,13.80
2022-12-31T18:18:26.503Z,13.80
2022-12-31T18:21:17.803Z,13.80
2022-12-31T18:23:47.440Z,13.80
2022-12-31T18:26:20.767Z,13.80
2022-12-31T18:28:49.443Z,13.80
2022-12-31T18:31:24.010Z,13.80
2022-12-31T18:33:53.730Z,13.80
2022-12-31T18:36:22.861Z,13.80
2022-12-31T18:38:51.105Z,13.90
2022-12-31T18:41:21.485Z,13.90
2022-12-31T18:43:49.509Z,13.90
2022-12-31T18:46:19.587Z,14.00
2022-12-31T18:48:47.915Z,13.90
2022-12-31T18:51:31.123Z,14.00
2022-12-31T18:54:03.638Z,14.00
2022-12-31T18:56:31.716Z,14.00
2022-12-31T18:59:00.146Z,14.00
2022-12-31T19:01:36.803Z,14.00
2022-12-31T19:04:19.941Z,14.00
2022-12-31T19:06:50.640Z,14.00
2022-12-31T19:09:43.854Z,14.00
2022-12-31T19:12:06.120Z,14.10
2022-12-31T19:14:33.722Z,14.10
2022-12-31T19:19:27.911Z,14.10
2022-12-31T19:21:55.480Z,14.20
2022-12-31T19:24:26.564Z,14.20
2022-12-31T19:26:55.007Z,14.20
2022-12-31T19:29:25.080Z,14.30
2022-12-31T19:31:53.288Z,14.30
2022-12-31T19:34:21.174Z,14.30
2022-12-31T19:36:48.877Z,14.30
2022-12-31T19:39:20.263Z,14.40
2022-12-31T19:41:54.731Z,14.40
2022-12-31T19:44:26.481Z,14.40
2022-12-31T19:46:54.254Z,14.40
2022-12-31T19:49:22.249Z,14.50
2022-12-31T19:51:49.818Z,14.50
2022-12-31T19:54:17.319Z,14.50
2022-12-31T19:56:44.692Z,14.50
2022-12-31T19:59:12.193Z,14.60
2022-12-31T20:01:39.668Z,14.60
2022-12-31T20:04:07.349Z,14.60
2022-12-31T20:06:34.971Z,14.60
2022-12-31T20:09:03.136Z,14.60
2022-12-31T20:11:30.658Z,14.60
2022-12-31T20:13:58.477Z,14.60
2022-12-31T20:16:31.642Z,14.60
2022-12-31T20:18:59.523Z,14.50
2022-12-31T20:21:29.021Z,14.60
2022-12-31T20:23:56.751Z,14.60
2022-12-31T20:26:25.097Z,14.70
2022-12-31T20:28:53.088Z,14.70
2022-12-31T20:31:23.749Z,14.60
2022-12-31T20:33:53.627Z,14.70
2022-12-31T20:36:22.092Z,14.70
2022-12-31T20:38:50.249Z,14.70
2022-12-31T20:41:21.275Z,14.70
2022-12-31T20:43:48.862Z,14.70
2022-12-31T20:46:23.880Z,14.60
2022-12-31T20:48:53.895Z,14.60
2022-12-31T20:51:22.580Z,14.60
2022-12-31T20:53:55.150Z,14.60
2022-12-31T20:56:24.153Z,14.60
2022-12-31T20:58:51.793Z,14.60
2022-12-31T21:01:20.057Z,14.60
2022-12-31T21:04:06.001Z,14.50
2022-12-31T21:06:35.792Z,14.50
2022-12-31T21:09:07.045Z,14.50
2022-12-31T21:11:53.509Z,14.50
2022-12-31T21:14:21.420Z,14.50
2022-12-31T21:16:48.995Z,14.40
2022-12-31T21:19:16.443Z,14.40
2022-12-31T21:21:44.193Z,14.40
2022-12-31T21:24:11.968Z,14.40
2022-12-31T21:26:39.551Z,14.40
2022-12-31T21:29:07.075Z,14.40
2022-12-31T21:31:34.657Z,14.30
2022-12-31T21:34:02.098Z,14.30
2022-12-31T21:36:29.589Z,14.40
2022-12-31T21:38:57.296Z,14.40
2022-12-31T21:41:43.151Z,14.40
2022-12-31T21:44:10.639Z,14.30
2022-12-31T21:46:38.578Z,14.30
2022-12-31T21:49:06.301Z,14.30
2022-12-31T21:51:54.053Z,14.30
2022-12-31T21:54:41.472Z,14.30
2022-12-31T21:57:09.124Z,14.30
2022-12-31T22:00:23.874Z,14.30
2022-12-31T22:03:01.091Z,14.30
2022-12-31T22:05:28.732Z,14.30
2022-12-31T22:07:56.396Z,14.30
2022-12-31T22:10:23.834Z,14.30
2022-12-31T22:12:51.346Z,14.20
2022-12-31T22:15:19.067Z,14.20
2022-12-31T22:17:46.871Z,14.20
2022-12-31T22:20:26.940Z,14.20
2022-12-31T22:22:55.697Z,14.30
2022-12-31T22:25:23.283Z,14.20
2022-12-31T22:28:19.335Z,14.20
2022-12-31T22:30:38.133Z,14.20
2022-12-31T22:33:05.844Z,14.20
2022-12-31T22:35:33.635Z,14.20
2022-12-31T22:38:08.124Z,14.20
2022-12-31T22:40:39.306Z,14.20
2022-12-31T22:43:06.930Z,14.20
2022-12-31T22:45:36.071Z,14.20
2022-12-31T22:48:03.825Z,14.20
2022-12-31T22:50:31.416Z,14.20
2022-12-31T22:52:58.812Z,14.30
2022-12-31T22:55:26.325Z,14.20
2022-12-31T22:57:53.872Z,14.20
2022-12-31T23:00:37.630Z,14.20
2022-12-31T23:03:05.143Z,14.20
2022-12-31T23:05:34.119Z,14.20
2022-12-31T23:08:07.961Z,14.10
2022-12-31T23:10:58.855Z,14.10
2022-12-31T23:13:50.922Z,14.10
2022-12-31T23:16:38.302Z,14.10
2022-12-31T23:19:25.685Z,14.10
2022-12-31T23:22:12.248Z,14.10
2022-12-31T23:24:40.045Z,14.10
2022-12-31T23:27:08.763Z,14.00
2022-12-31T23:29:45.965Z,14.00
2022-12-31T23:32:16.593Z,14.00
2022-12-31T23:34:45.808Z,14.00
2022-12-31T23:37:14.465Z,14.00
2022-12-31T23:39:42.454Z,14.00
2022-12-31T23:42:10.100Z,14.00
2022-12-31T23:44:37.555Z,14.00
2022-12-31T23:47:05.412Z,14.00
2022-12-31T23:49:32.985Z,14.00
2022-12-31T23:52:00.489Z,14.00
2022-12-31T23:54:28.551Z,14.00
2022-12-31T23:56:55.983Z,14.00
2022-12-31T23:59:23.477Z,13.90
